Time;durP1;ratioP1;P1;durP2;ratioP2;P2;SDS_P1;SDS_P2;PMS_P1;PMS_P2;Temp;Humidity;BMP_temperature;BMP_pressure;BME280_temperature;BME280_humidity;BME280_pressure;Samples;Min_cycle;Max_cycle;Signal;HPM_P1;HPM_P2
2023/12/02 00:01:17;;;;;;;5.28;1.35;;;;;;;19.24;51.78;96446.00;5075472;28;20085;-73
2023/12/02 00:03:43;;;;;;;5.38;1.50;;;;;;;19.27;52.25;96439.38;5074940;28;20471;-73
2023/12/02 00:06:09;;;;;;;2.13;1.17;;;;;;;19.38;51.75;96431.69;5075261;28;20024;-74
2023/12/02 00:08:34;;;;;;;3.75;1.83;;;;;;;19.34;51.92;96445.78;5091727;28;20020;-74
2023/12/02 00:11:00;;;;;;;7.82;1.95;;;;;;;19.27;52.20;96442.09;5093341;28;20031;-73
2023/12/02 00:13:25;;;;;;;10.15;2.47;;;;;;;19.24;52.11;96445.16;5058109;28;20024;-74
2023/12/02 00:15:51;;;;;;;5.60;1.70;;;;;;;19.25;52.05;96445.00;5074968;28;20020;-74
2023/12/02 00:18:17;;;;;;;8.00;1.73;;;;;;;19.20;52.39;96438.38;5074881;28;20188;-74
2023/12/02 00:20:42;;;;;;;4.38;1.45;;;;;;;19.15;52.56;96435.34;5093090;28;20020;-74
2023/12/02 00:23:08;;;;;;;1.58;1.08;;;;;;;19.26;51.99;96440.38;5074809;28;20024;-74
2023/12/02 00:25:33;;;;;;;5.85;2.00;;;;;;;19.39;51.96;96443.38;5058011;28;20060;-73
2023/12/02 00:27:59;;;;;;;6.25;1.83;;;;;;;19.36;51.73;96449.16;5092973;28;20042;-73
2023/12/02 00:30:24;;;;;;;6.57;1.65;;;;;;;19.32;51.58;96455.94;5074814;28;20032;-74
2023/12/02 00:32:50;;;;;;;2.90;1.70;;;;;;;19.34;51.45;96459.34;5074464;28;20028;-73
2023/12/02 00:35:16;;;;;;;4.68;1.77;;;;;;;19.29;51.58;96459.84;5074528;28;20024;-73
2023/12/02 00:37:41;;;;;;;3.60;1.33;;;;;;;19.35;51.90;96450.16;5074472;28;20032;-74
2023/12/02 00:40:08;;;;;;;4.22;1.65;;;;;;;19.36;51.80;96450.00;5091418;28;20027;-72
2023/12/02 00:42:34;;;;;;;5.75;1.27;;;;;;;19.36;51.47;96432.88;5074348;28;20035;-74
2023/12/02 00:45:00;;;;;;;3.97;1.52;;;;;;;19.50;51.08;96429.47;5091211;28;20377;-74
2023/12/02 00:47:25;;;;;;;5.10;1.50;;;;;;;19.42;51.47;96427.63;5074512;28;20028;-73
2023/12/02 00:49:51;;;;;;;6.60;1.20;;;;;;;19.41;51.56;96436.78;5073710;28;20083;-73
2023/12/02 00:52:16;;;;;;;3.85;1.20;;;;;;;19.36;52.04;96441.03;5074457;28;20039;-74
2023/12/02 00:54:42;;;;;;;2.97;1.25;;;;;;;19.34;52.02;96438.50;5075381;28;20498;-72
2023/12/02 00:57:07;;;;;;;6.40;1.58;;;;;;;19.28;52.61;96450.06;5112763;28;20031;-73
2023/12/02 00:59:33;;;;;;;3.35;1.55;;;;;;;19.19;52.94;96445.69;5094307;28;20027;-73
2023/12/02 01:01:59;;;;;;;4.97;1.20;;;;;;;19.14;53.13;96439.94;5077613;28;20039;-73
2023/12/02 01:04:24;;;;;;;3.55;1.52;;;;;;;19.07;53.35;96444.38;5079095;28;20025;-74
2023/12/02 01:06:50;;;;;;;4.88;1.20;;;;;;;19.09;53.06;96436.06;5073858;28;20032;-73
2023/12/02 01:09:16;;;;;;;1.42;1.13;;;;;;;19.17;52.46;96441.44;5073972;28;20032;-74
2023/12/02 01:11:41;;;;;;;1.75;1.30;;;;;;;19.15;52.97;96432.66;5073552;28;20119;-73
2023/12/02 01:14:07;;;;;;;2.53;1.40;;;;;;;19.08;52.81;96415.38;5073713;28;20039;-73
2023/12/02 01:16:32;;;;;;;2.28;1.38;;;;;;;19.13;52.68;96405.72;5073678;28;20535;-72
2023/12/02 01:18:58;;;;;;;3.40;1.20;;;;;;;19.13;52.62;96402.16;5091424;28;20028;-72
2023/12/02 01:21:24;;;;;;;4.57;1.30;;;;;;;19.12;52.74;96398.59;5073680;28;20032;-73
2023/12/02 01:23:49;;;;;;;4.55;1.20;;;;;;;19.15;52.02;96398.25;5090207;28;20024;-73
2023/12/02 01:26:15;;;;;;;3.08;1.23;;;;;;;19.27;51.74;96402.25;5091844;28;20061;-72
2023/12/02 01:28:40;;;;;;;3.47;1.25;;;;;;;19.27;52.00;96409.53;5073251;28;20035;-72
2023/12/02 01:31:06;;;;;;;4.45;1.30;;;;;;;19.11;52.90;96406.91;5073502;28;20028;-74
2023/12/02 01:33:32;;;;;;;4.47;1.88;;;;;;;19.06;52.96;96410.16;5073143;28;20031;-72
2023/12/02 01:35:57;;;;;;;2.50;1.73;;;;;;;19.10;52.75;96397.09;5073325;28;20487;-73
2023/12/02 01:38:23;;;;;;;5.38;1.20;;;;;;;19.03;53.26;96369.84;5073393;28;20047;-73
2023/12/02 01:40:48;;;;;;;4.43;1.60;;;;;;;19.01;53.31;96385.41;5072577;28;20035;-73
2023/12/02 01:43:24;;;;;;;4.30;1.25;;;;;;;18.99;53.31;96376.63;5073450;28;20433;-73
2023/12/02 01:45:50;;;;;;;1.73;1.20;;;;;;;19.02;53.93;96380.84;5073185;28;20097;-73
2023/12/02 01:48:16;;;;;;;4.35;1.35;;;;;;;18.94;53.80;96379.88;5073118;28;20032;-73
2023/12/02 01:50:41;;;;;;;8.52;2.08;;;;;;;18.94;54.31;96389.88;5072883;28;20147;-73
2023/12/02 01:53:07;;;;;;;3.78;1.08;;;;;;;18.87;54.33;96368.03;5072860;28;20023;-73
2023/12/02 01:55:32;;;;;;;6.35;1.50;;;;;;;18.90;54.86;96380.38;5091198;28;20552;-73
2023/12/02 01:57:58;;;;;;;4.30;1.17;;;;;;;18.91;54.41;96379.38;5089504;28;20027;-72
2023/12/02 02:00:24;;;;;;;2.95;1.73;;;;;;;18.84;53.84;96384.66;5072966;28;20024;-72
2023/12/02 02:02:49;;;;;;;3.45;1.23;;;;;;;18.84;53.72;96387.34;5090604;28;20031;-73
2023/12/02 02:05:15;;;;;;;1.30;0.98;;;;;;;18.88;53.53;96386.00;5090994;28;20024;-72
2023/12/02 02:07:41;;;;;;;1.95;0.85;;;;;;;18.88;53.43;96390.56;5091065;28;20036;-72
2023/12/02 02:10:07;;;;;;;4.80;1.60;;;;;;;18.87;53.23;96375.31;5090943;28;20031;-73
2023/12/02 02:12:32;;;;;;;5.68;2.25;;;;;;;18.90;52.81;96373.09;5072685;28;20045;-74
2023/12/02 02:14:58;;;;;;;1.85;1.05;;;;;;;18.89;52.78;96371.41;5072423;28;20053;-72
2023/12/02 02:17:23;;;;;;;1.38;0.90;;;;;;;18.85;53.04;96364.66;5056073;28;20032;-72
2023/12/02 02:19:49;;;;;;;4.72;1.15;;;;;;;18.80;53.05;96348.06;5072796;28;20181;-73
2023/12/02 02:22:15;;;;;;;2.60;1.20;;;;;;;18.84;52.76;96354.84;5072618;28;20016;-74
2023/12/02 02:24:40;;;;;;;3.35;1.17;;;;;;;18.85;52.49;96348.41;5072927;28;20027;-74
2023/12/02 02:27:06;;;;;;;3.15;1.50;;;;;;;18.89;52.48;96343.47;5089299;28;20024;-73
2023/12/02 02:29:31;;;;;;;4.35;1.23;;;;;;;18.83;52.85;96339.59;5055864;28;20118;-73
2023/12/02 02:31:57;;;;;;;3.40;1.00;;;;;;;18.87;52.45;96362.63;5072698;28;20023;-73
2023/12/02 02:34:23;;;;;;;7.00;0.90;;;;;;;18.89;52.11;96360.56;5072275;28;20042;-72
2023/12/02 02:36:48;;;;;;;2.08;0.73;;;;;;;18.85;52.19;96361.97;5072592;28;20016;-73
2023/12/02 02:39:14;;;;;;;4.38;1.25;;;;;;;18.93;52.45;96351.06;5072295;28;20028;-74
2023/12/02 02:41:39;;;;;;;3.78;1.10;;;;;;;18.85;51.87;96353.84;5089466;28;20097;-74
2023/12/02 02:44:05;;;;;;;4.32;0.95;;;;;;;18.94;51.44;96341.09;5072297;28;20521;-75
2023/12/02 02:46:31;;;;;;;4.05;1.10;;;;;;;19.02;51.07;96353.75;5072547;28;20093;-72
2023/12/02 02:48:57;;;;;;;1.88;0.68;;;;;;;18.97;51.32;96353.44;5072171;28;20020;-74
2023/12/02 02:51:22;;;;;;;3.78;1.02;;;;;;;19.01;51.17;96327.69;5073082;28;20039;-73
2023/12/02 02:53:48;;;;;;;3.85;1.02;;;;;;;18.98;51.10;96336.97;5076516;28;20055;-73
2023/12/02 02:56:13;;;;;;;3.20;1.35;;;;;;;19.01;50.94;96352.06;5076575;28;20034;-73
2023/12/02 02:58:39;;;;;;;5.57;1.40;;;;;;;18.90;51.29;96354.13;5094709;28;20024;-73
2023/12/02 03:01:05;;;;;;;2.70;1.10;;;;;;;18.93;51.09;96345.66;5092889;28;20031;-73
2023/12/02 03:03:30;;;;;;;2.70;1.23;;;;;;;18.98;50.70;96326.13;5059479;28;20055;-73
2023/12/02 03:05:56;;;;;;;3.22;1.63;;;;;;;19.00;50.93;96336.81;5092979;28;20070;-73
2023/12/02 03:08:22;;;;;;;3.30;1.27;;;;;;;18.90;51.20;96327.03;5076166;28;20024;-73
2023/12/02 03:10:48;;;;;;;1.95;1.30;;;;;;;18.84;51.35;96308.78;5094487;28;20104;-73
2023/12/02 03:13:14;;;;;;;6.20;1.83;;;;;;;18.78;51.39;96297.78;5113330;28;20100;-73
2023/12/02 03:15:39;;;;;;;3.72;1.33;;;;;;;18.89;50.82;96294.69;5114177;28;20032;-73
2023/12/02 03:18:05;;;;;;;5.72;1.20;;;;;;;18.93;50.74;96277.06;5096281;28;20039;-73
2023/12/02 03:20:30;;;;;;;4.32;1.40;;;;;;;19.00;50.34;96315.97;5095995;28;20039;-73
2023/12/02 03:22:56;;;;;;;4.10;1.10;;;;;;;19.12;49.02;96289.31;5079212;28;20166;-73
2023/12/02 03:25:21;;;;;;;6.38;1.63;;;;;;;19.24;48.47;96296.00;5096170;28;20028;-73
2023/12/02 03:27:47;;;;;;;4.15;1.27;;;;;;;19.34;47.94;96278.50;5079254;28;20035;-73
2023/12/02 03:30:13;;;;;;;2.65;0.77;;;;;;;19.42;47.45;96281.19;5095956;28;20417;-73
2023/12/02 03:32:38;;;;;;;2.80;1.00;;;;;;;19.39;48.02;96283.38;5095824;28;20055;-74
2023/12/02 03:35:06;;;;;;;2.42;1.00;;;;;;;19.44;47.71;96284.53;5078989;28;20032;-74
2023/12/02 03:37:32;;;;;;;2.05;1.60;;;;;;;19.37;48.11;96289.00;5078837;28;20063;-73
2023/12/02 03:39:57;;;;;;;2.28;1.30;;;;;;;19.34;48.44;96286.63;5095933;28;20104;-73
2023/12/02 03:42:23;;;;;;;3.78;1.17;;;;;;;19.31;47.98;96275.31;5095787;28;20036;-72
2023/12/02 03:44:49;;;;;;;2.80;1.13;;;;;;;19.29;48.57;96252.94;5095713;28;20024;-73
2023/12/02 03:47:14;;;;;;;6.18;1.67;;;;;;;19.21;48.75;96277.41;5096083;28;20035;-72
2023/12/02 03:49:42;;;;;;;4.03;1.02;;;;;;;19.14;49.06;96274.56;5113814;28;20107;-73
2023/12/02 03:52:09;;;;;;;2.60;1.48;;;;;;;19.07;49.18;96270.03;5113921;28;20506;-73
2023/12/02 03:54:35;;;;;;;2.00;1.20;;;;;;;18.91;49.96;96260.13;5095677;28;20027;-73
2023/12/02 03:57:00;;;;;;;1.30;0.90;;;;;;;18.86;50.24;96295.03;5095613;28;20054;-72
2023/12/02 03:59:26;;;;;;;1.17;0.70;;;;;;;18.75;50.67;96284.59;5054506;28;20027;-74
2023/12/02 04:01:51;;;;;;;2.40;1.20;;;;;;;18.68;51.05;96314.25;5074581;28;20043;-73
2023/12/02 04:04:18;;;;;;;2.13;1.10;;;;;;;18.61;51.21;96302.41;5093142;28;20032;-73
2023/12/02 04:06:44;;;;;;;3.78;1.58;;;;;;;18.61;51.19;96317.84;5093550;28;20036;-73
2023/12/02 04:09:10;;;;;;;3.42;1.35;;;;;;;18.57;51.08;96295.69;5093135;28;20047;-73
2023/12/02 04:11:35;;;;;;;2.55;1.55;;;;;;;18.66;51.01;96293.78;5058319;28;20023;-72
2023/12/02 04:14:01;;;;;;;5.72;1.20;;;;;;;18.59;51.58;96296.34;5093028;28;20115;-74
2023/12/02 04:16:27;;;;;;;1.58;0.80;;;;;;;18.60;51.38;96314.28;5074839;28;20476;-74
2023/12/02 04:18:52;;;;;;;2.53;1.20;;;;;;;18.55;51.44;96315.84;5074812;28;20027;-73
2023/12/02 04:21:18;;;;;;;2.75;1.50;;;;;;;18.55;51.68;96326.69;5074948;28;20093;-73
2023/12/02 04:23:46;;;;;;;5.70;1.15;;;;;;;18.59;51.37;96326.13;5074712;28;20079;-73
2023/12/02 04:26:12;;;;;;;2.88;1.40;;;;;;;18.64;51.08;96334.56;5092810;28;20032;-73
2023/12/02 04:28:38;;;;;;;5.00;1.65;;;;;;;18.76;50.55;96330.50;5074371;28;20038;-75
2023/12/02 04:31:07;;;;;;;4.28;1.63;;;;;;;18.75;50.74;96317.09;5091611;28;20036;-74
2023/12/02 04:33:32;;;;;;;6.15;1.50;;;;;;;18.62;50.72;96297.84;5096037;28;20375;-73
2023/12/02 04:35:58;;;;;;;3.97;1.63;;;;;;;18.68;50.19;96279.03;5076480;28;20055;-73
2023/12/02 04:38:33;;;;;;;3.78;1.73;;;;;;;18.86;49.90;96290.47;5073132;28;20027;-74
2023/12/02 04:41:17;;;;;;;6.30;1.50;;;;;;;18.86;49.97;96252.53;5058020;28;20093;-73
2023/12/02 04:43:42;;;;;;;4.38;1.40;;;;;;;18.83;49.67;96269.16;5074732;28;20028;-73
2023/12/02 04:46:22;;;;;;;4.05;1.30;;;;;;;18.84;49.57;96268.13;5074516;28;20537;-73
2023/12/02 04:48:48;;;;;;;5.47;1.33;;;;;;;18.89;49.81;96262.16;5064439;28;20082;-74
2023/12/02 04:51:14;;;;;;;2.22;1.17;;;;;;;18.89;49.39;96263.00;5089033;28;20024;-71
2023/12/02 04:53:39;;;;;;;3.88;1.48;;;;;;;18.90;49.27;96250.31;5074176;28;20028;-74
2023/12/02 04:56:05;;;;;;;1.73;1.25;;;;;;;18.94;49.17;96286.88;5074439;28;20442;-74
2023/12/02 04:58:31;;;;;;;2.53;1.23;;;;;;;18.95;48.49;96283.13;5076463;28;20032;-72
2023/12/02 05:00:56;;;;;;;3.38;1.55;;;;;;;19.02;49.09;96288.69;5094435;28;20050;-74
2023/12/02 05:03:22;;;;;;;4.30;1.70;;;;;;;18.93;49.17;96263.50;5094419;28;20028;-73
2023/12/02 05:05:48;;;;;;;4.22;1.20;;;;;;;18.95;49.54;96270.44;5094372;28;20020;-73
2023/12/02 05:08:13;;;;;;;4.22;1.55;;;;;;;18.90;49.29;96245.75;5077344;28;20460;-72
2023/12/02 05:10:39;;;;;;;5.13;1.38;;;;;;;18.95;48.95;96251.47;5073842;28;20085;-74
2023/12/02 05:13:05;;;;;;;2.97;1.80;;;;;;;19.01;48.27;96268.06;5092047;28;20073;-73
2023/12/02 05:15:31;;;;;;;8.85;1.70;;;;;;;19.08;48.14;96256.28;5072659;28;20032;-74
2023/12/02 05:17:56;;;;;;;5.00;1.60;;;;;;;19.13;47.17;96255.78;5090717;28;20024;-73
2023/12/02 05:20:22;;;;;;;5.18;1.10;;;;;;;19.26;46.72;96246.00;5073774;28;20020;-73
2023/12/02 05:22:47;;;;;;;2.60;1.25;;;;;;;19.31;47.22;96259.03;5060800;28;20055;-73
2023/12/02 05:25:13;;;;;;;5.60;1.73;;;;;;;19.22;47.54;96262.81;5066364;28;20016;-73
2023/12/02 05:27:39;;;;;;;5.13;1.55;;;;;;;19.15;47.71;96275.41;5110439;28;20077;-73
2023/12/02 05:30:06;;;;;;;4.25;2.10;;;;;;;19.04;48.13;96256.84;5093972;28;20566;-73
2023/12/02 05:32:31;;;;;;;5.43;2.20;;;;;;;19.05;48.76;96285.63;5076706;28;20033;-72
2023/12/02 05:34:57;;;;;;;4.00;1.50;;;;;;;18.93;47.75;96258.09;5076911;28;20024;-74
2023/12/02 05:37:22;;;;;;;6.38;2.00;;;;;;;19.00;47.42;96280.75;5093574;28;20019;-74
2023/12/02 05:39:48;;;;;;;4.68;1.55;;;;;;;19.11;47.29;96276.78;5076647;28;20453;-73
2023/12/02 05:42:14;;;;;;;2.92;1.30;;;;;;;19.10;46.69;96281.38;5093392;28;20023;-73
2023/12/02 05:44:42;;;;;;;2.15;1.50;;;;;;;19.21;46.83;96270.13;5076759;28;20024;-74
2023/12/02 05:47:08;;;;;;;2.33;1.10;;;;;;;19.21;46.64;96259.28;5093850;28;20030;-74
2023/12/02 05:49:34;;;;;;;3.70;1.30;;;;;;;19.23;46.57;96259.91;5076116;28;20047;-73
2023/12/02 05:52:11;;;;;;;2.92;1.10;;;;;;;19.21;46.68;96266.56;5093641;28;20105;-74
2023/12/02 05:54:43;;;;;;;4.05;1.40;;;;;;;19.31;46.57;96278.00;5091724;28;20120;-73
2023/12/02 05:57:14;;;;;;;2.17;1.35;;;;;;;19.39;46.27;96270.69;5079039;28;20403;-74
2023/12/02 05:59:40;;;;;;;2.67;1.10;;;;;;;19.33;46.41;96289.53;5093455;28;20509;-73
2023/12/02 06:02:05;;;;;;;5.15;1.65;;;;;;;19.26;47.32;96281.25;5081167;28;20032;-73
2023/12/02 06:04:31;;;;;;;3.38;1.13;;;;;;;19.19;47.30;96306.56;5073174;28;20491;-74
2023/12/02 06:06:57;;;;;;;5.68;1.30;;;;;;;19.17;47.17;96292.31;5076114;28;20028;-73
2023/12/02 06:09:23;;;;;;;3.58;1.42;;;;;;;19.11;47.47;96282.19;5057145;28;20024;-73
2023/12/02 06:11:51;;;;;;;3.53;1.48;;;;;;;19.10;47.21;96294.09;5088979;28;20380;-74
2023/12/02 06:14:17;;;;;;;1.85;1.40;;;;;;;19.03;47.39;96269.56;5055834;28;20031;-74
2023/12/02 06:16:43;;;;;;;5.32;2.17;;;;;;;19.03;47.15;96264.13;5072614;28;20476;-74
2023/12/02 06:19:08;;;;;;;2.40;1.40;;;;;;;19.09;46.87;96258.00;5090489;28;20047;-73
2023/12/02 06:21:34;;;;;;;4.05;1.33;;;;;;;19.06;46.86;96273.75;5090816;28;20471;-73
2023/12/02 06:24:00;;;;;;;4.18;1.55;;;;;;;19.03;47.13;96268.69;5090618;28;20022;-73
2023/12/02 06:26:25;;;;;;;4.90;2.08;;;;;;;19.01;46.72;96268.06;5055735;28;20115;-74
2023/12/02 06:28:51;;;;;;;3.17;1.20;;;;;;;19.09;46.59;96286.97;5080744;28;20046;-73
2023/12/02 06:31:17;;;;;;;3.90;1.58;;;;;;;19.05;46.35;96282.91;5072346;28;20032;-73
2023/12/02 06:33:43;;;;;;;2.42;1.45;;;;;;;19.06;46.41;96273.75;5072213;28;20045;-73
2023/12/02 06:36:09;;;;;;;4.70;1.38;;;;;;;19.06;46.18;96269.19;5072331;28;20023;-73
2023/12/02 06:38:38;;;;;;;2.05;1.17;;;;;;;19.07;46.18;96246.50;5072634;28;20041;-73
2023/12/02 06:41:04;;;;;;;4.20;1.30;;;;;;;19.13;46.17;96244.94;5082143;28;20476;-74
2023/12/02 06:43:29;;;;;;;4.50;1.80;;;;;;;19.08;46.09;96250.03;5075787;28;20040;-73
2023/12/02 06:45:55;;;;;;;3.75;1.20;;;;;;;19.23;45.61;96259.06;5092700;28;20034;-76
2023/12/02 06:48:20;;;;;;;3.40;1.50;;;;;;;19.35;44.99;96258.47;5110382;28;20502;-73
2023/12/02 06:50:46;;;;;;;7.72;1.67;;;;;;;19.49;44.24;96254.19;5092275;28;20052;-74
2023/12/02 06:53:15;;;;;;;4.90;1.75;;;;;;;19.57;44.46;96256.81;5092375;28;20034;-74
2023/12/02 06:55:42;;;;;;;1.50;1.20;;;;;;;19.59;44.05;96264.78;5092809;28;20482;-73
2023/12/02 06:58:07;;;;;;;2.22;1.30;;;;;;;19.64;43.72;96263.22;5072640;28;20032;-73
2023/12/02 07:00:33;;;;;;;7.10;1.52;;;;;;;19.58;44.46;96246.81;5072106;28;20035;-74
2023/12/02 07:02:59;;;;;;;7.00;2.50;;;;;;;19.59;44.30;96264.78;5072263;28;20439;-74
2023/12/02 07:05:26;;;;;;;5.47;1.73;;;;;;;19.53;45.03;96262.81;5059981;28;20083;-72
2023/12/02 07:07:51;;;;;;;4.65;1.55;;;;;;;19.40;44.93;96261.53;5092521;28;20080;-75
2023/12/02 07:10:18;;;;;;;10.05;5.28;;;;;;;19.28;45.50;96268.38;5092176;28;20110;-74
2023/12/02 07:12:44;;;;;;;4.15;2.17;;;;;;;19.32;44.20;96258.00;5092211;28;20135;-74
2023/12/02 07:15:09;;;;;;;12.77;3.67;;;;;;;19.43;44.49;96265.75;5092033;28;20500;-74
2023/12/02 07:17:35;;;;;;;4.38;2.25;;;;;;;19.46;44.10;96260.81;5091996;28;20024;-72
2023/12/02 07:20:01;;;;;;;9.23;3.03;;;;;;;19.55;43.79;96261.59;5092468;28;20027;-73
2023/12/02 07:22:26;;;;;;;5.90;3.05;;;;;;;19.57;43.86;96261.41;5092095;28;20031;-72
2023/12/02 07:24:52;;;;;;;11.18;3.85;;;;;;;19.54;44.18;96267.19;5092061;28;20027;-73
2023/12/02 07:27:18;;;;;;;8.95;3.78;;;;;;;19.51;44.19;96268.41;5083136;28;20129;-73
2023/12/02 07:29:44;;;;;;;8.98;2.90;;;;;;;19.42;44.40;96288.47;5055164;28;20028;-74
2023/12/02 07:32:10;;;;;;;9.55;3.78;;;;;;;19.42;44.31;96272.19;5055058;28;20035;-72
2023/12/02 07:34:35;;;;;;;9.38;5.60;;;;;;;19.44;44.51;96262.84;5071562;28;20036;-73
2023/12/02 07:37:02;;;;;;;6.72;1.98;;;;;;;19.40;44.79;96268.84;5072049;28;20035;-73
2023/12/02 07:39:30;;;;;;;9.25;3.38;;;;;;;19.26;45.41;96273.13;5075329;28;20115;-73
2023/12/02 07:41:56;;;;;;;4.93;2.60;;;;;;;19.24;45.37;96249.94;5075518;28;20205;-73
2023/12/02 07:44:21;;;;;;;13.55;5.38;;;;;;;19.21;45.65;96266.56;5093537;28;20051;-73
2023/12/02 07:46:47;;;;;;;8.77;4.60;;;;;;;19.12;45.71;96273.91;5075323;28;20078;-73
2023/12/02 07:49:12;;;;;;;7.45;2.03;;;;;;;19.10;45.81;96302.22;5091832;28;20054;-73
2023/12/02 07:51:38;;;;;;;4.45;1.90;;;;;;;19.04;46.36;96306.47;5075540;28;20032;-73
2023/12/02 07:54:04;;;;;;;4.78;1.38;;;;;;;18.92;46.54;96306.00;5092347;28;20143;-72
2023/12/02 07:56:29;;;;;;;4.60;2.20;;;;;;;18.90;46.78;96291.81;5095434;28;20050;-73
2023/12/02 07:58:55;;;;;;;5.15;2.72;;;;;;;18.83;47.31;96323.34;5095475;28;20478;-72
2023/12/02 08:01:25;;;;;;;6.43;2.30;;;;;;;18.72;47.69;96310.19;5095307;28;20513;-72
2023/12/02 08:03:50;;;;;;;2.88;1.75;;;;;;;18.65;47.83;96306.47;5078547;28;20264;-72
2023/12/02 08:06:16;;;;;;;15.38;4.20;;;;;;;18.74;47.26;96291.88;5095264;28;20027;-73
2023/12/02 08:08:42;;;;;;;3.58;1.95;;;;;;;18.75;46.85;96304.41;5094113;28;20035;-73
2023/12/02 08:11:07;;;;;;;4.45;2.10;;;;;;;18.83;46.78;96307.06;5092989;28;20467;-72
2023/12/02 08:13:33;;;;;;;6.18;2.58;;;;;;;18.85;46.44;96299.63;5074736;28;20027;-72
2023/12/02 08:15:59;;;;;;;7.97;3.40;;;;;;;18.81;47.02;96276.63;5077723;28;20069;-72
2023/12/02 08:18:24;;;;;;;4.00;2.40;;;;;;;18.81;46.46;96276.63;5106568;28;20048;-72
2023/12/02 08:20:50;;;;;;;5.63;2.72;;;;;;;18.90;46.39;96296.38;5080552;28;20544;-72
2023/12/02 08:23:15;;;;;;;4.20;2.70;;;;;;;18.86;46.43;96285.03;5095459;28;20106;-72
2023/12/02 08:25:41;;;;;;;7.57;2.33;;;;;;;18.92;45.92;96289.75;5095272;28;20031;-72
2023/12/02 08:28:07;;;;;;;4.05;2.65;;;;;;;18.95;46.52;96300.25;5100447;28;20032;-73
2023/12/02 08:30:32;;;;;;;5.95;2.42;;;;;;;19.01;45.24;96287.03;5057826;28;20020;-72
2023/12/02 08:32:58;;;;;;;5.25;1.65;;;;;;;19.05;45.49;96283.75;5074261;28;20038;-72
2023/12/02 08:35:23;;;;;;;4.72;2.00;;;;;;;19.09;45.81;96301.38;5092387;28;20038;-73
2023/12/02 08:37:49;;;;;;;5.40;2.08;;;;;;;19.08;45.47;96296.09;5090923;28;20035;-73
2023/12/02 08:40:15;;;;;;;8.63;2.22;;;;;;;19.03;45.89;96287.69;5074129;28;20042;-73
2023/12/02 08:42:40;;;;;;;4.25;2.20;;;;;;;18.95;46.17;96302.94;5091202;28;20115;-74
2023/12/02 08:45:07;;;;;;;5.25;1.92;;;;;;;18.98;46.11;96309.06;5094196;28;20103;-72
2023/12/02 08:47:35;;;;;;;4.07;2.42;;;;;;;18.87;46.09;96297.59;5094580;28;20023;-73
2023/12/02 08:50:01;;;;;;;6.50;2.70;;;;;;;18.82;46.75;96296.44;5057095;28;20242;-73
2023/12/02 08:52:26;;;;;;;2.53;1.83;;;;;;;18.80;46.65;96299.31;5054289;28;20028;-72
2023/12/02 08:54:52;;;;;;;5.80;2.28;;;;;;;18.75;47.11;96290.88;5073859;28;20024;-73
2023/12/02 08:57:17;;;;;;;4.72;2.40;;;;;;;18.70;47.19;96295.94;5074173;28;20112;-72
2023/12/02 08:59:43;;;;;;;6.05;2.58;;;;;;;18.69;47.12;96299.69;5098781;28;20118;-72
2023/12/02 09:02:09;;;;;;;4.65;2.15;;;;;;;18.71;46.94;96285.97;5093995;28;20498;-72
2023/12/02 09:04:35;;;;;;;4.60;1.92;;;;;;;18.76;46.40;96275.47;5104136;28;20015;-73
2023/12/02 09:07:01;;;;;;;4.45;1.88;;;;;;;18.78;46.79;96276.97;5076539;28;20028;-73
2023/12/02 09:09:27;;;;;;;3.45;1.75;;;;;;;18.84;46.27;96270.84;5073954;28;20406;-73
2023/12/02 09:11:53;;;;;;;4.78;1.92;;;;;;;18.86;45.83;96263.38;5082553;28;20111;-73
2023/12/02 09:14:18;;;;;;;4.45;1.92;;;;;;;18.88;45.54;96261.34;5093486;28;20031;-72
2023/12/02 09:16:47;;;;;;;4.68;2.65;;;;;;;18.94;45.96;96268.75;5079638;28;20023;-73
2023/12/02 09:19:50;;;;;;;4.50;2.40;;;;;;;18.92;46.22;96262.66;5057223;28;20031;-72
2023/12/02 09:22:44;;;;;;;5.68;2.33;;;;;;;18.80;46.54;96257.81;5076678;28;20036;-73
2023/12/02 09:25:27;;;;;;;4.60;2.25;;;;;;;18.76;46.59;96264.63;5076598;28;20114;-74
2023/12/02 09:27:52;;;;;;;;;;;;;;;18.72;47.16;96266.84;5093897;28;20111;-73
2023/12/02 09:30:19;;;;;;;3.97;2.30;;;;;;;18.58;47.34;96258.63;5089676;28;19920;-72
2023/12/02 09:32:46;;;;;;;4.40;1.40;;;;;;;18.58;47.13;96272.97;5073135;28;20082;-71
2023/12/02 09:35:11;;;;;;;3.90;2.35;;;;;;;18.57;47.90;96292.97;5096250;28;20031;-73
2023/12/02 09:37:54;;;;;;;4.03;2.00;;;;;;;18.41;47.87;96274.88;5093409;28;20028;-72
2023/12/02 09:40:28;;;;;;;2.92;1.85;;;;;;;18.45;47.85;96269.97;5093606;28;20035;-72
2023/12/02 09:43:10;;;;;;;3.03;2.28;;;;;;;18.41;48.00;96276.75;5093163;28;20111;-73
2023/12/02 09:45:53;;;;;;;5.30;3.25;;;;;;;18.39;48.53;96278.78;5052871;28;20036;-73
2023/12/02 09:48:28;;;;;;;7.50;4.20;;;;;;;18.30;48.85;96279.84;5089612;28;20028;-72
2023/12/02 09:50:53;;;;;;;6.35;2.65;;;;;;;18.42;48.46;96275.75;5089002;28;20135;-72
2023/12/02 09:53:40;;;;;;;3.10;2.03;;;;;;;18.57;48.22;96274.03;5109824;28;20059;-72
2023/12/02 09:56:19;;;;;;;7.55;2.15;;;;;;;18.61;47.83;96264.50;5092704;28;20099;-72
2023/12/02 09:58:47;;;;;;;2.88;1.73;;;;;;;18.86;45.39;96257.94;5075879;28;20070;-73
2023/12/02 10:01:16;;;;;;;7.35;2.50;;;;;;;19.11;46.43;96283.03;5090200;28;20435;-72
2023/12/02 10:03:56;;;;;;;4.47;2.30;;;;;;;19.12;46.25;96264.91;5089186;28;20120;-73
2023/12/02 10:06:31;;;;;;;2.85;1.85;;;;;;;19.00;46.77;96258.22;5108086;28;20518;-74
2023/12/02 10:09:11;;;;;;;6.85;2.90;;;;;;;18.78;47.78;96265.28;5109546;28;20399;-71
2023/12/02 10:12:07;;;;;;;3.08;1.65;;;;;;;18.65;48.29;96289.38;5105811;28;20023;-72
2023/12/02 10:14:34;;;;;;;3.55;1.85;;;;;;;18.49;49.07;96297.56;5072586;28;20024;-72
2023/12/02 10:17:02;;;;;;;6.57;1.80;;;;;;;18.43;48.33;96277.41;5072061;28;20023;-71
2023/12/02 10:19:37;;;;;;;5.60;1.98;;;;;;;18.41;48.63;96261.34;5053265;28;20028;-72
2023/12/02 10:22:06;;;;;;;3.38;1.73;;;;;;;18.50;48.84;96283.00;5090748;28;20030;-71
2023/12/02 10:25:00;;;;;;;5.97;2.58;;;;;;;18.48;48.75;96253.38;5055668;28;20028;-72
2023/12/02 10:27:29;;;;;;;4.20;2.00;;;;;;;18.55;48.19;96245.44;5089300;28;20038;-73
2023/12/02 10:30:33;;;;;;;7.65;2.50;;;;;;;18.56;48.04;96237.13;5092913;28;20037;-73
2023/12/02 10:33:27;;;;;;;5.55;2.45;;;;;;;18.68;47.87;96232.13;5053950;28;20449;-72
2023/12/02 10:36:02;;;;;;;6.80;2.42;;;;;;;18.71;47.33;96219.09;5097002;28;20023;-73
2023/12/02 10:38:52;;;;;;;4.35;2.38;;;;;;;18.81;47.11;96213.44;5092441;28;20051;-72
2023/12/02 10:41:30;;;;;;;12.10;6.45;;;;;;;18.87;46.52;96194.63;5084172;28;20103;-73
2023/12/02 10:43:58;;;;;;;6.93;2.22;;;;;;;18.93;45.89;96193.03;5075651;28;20380;-73
2023/12/02 10:46:25;;;;;;;7.28;2.65;;;;;;;18.98;45.44;96190.63;5085156;28;20051;-73
2023/12/02 10:48:54;;;;;;;8.55;2.42;;;;;;;19.10;45.43;96188.38;5072255;28;20026;-73
2023/12/02 10:51:22;;;;;;;5.72;2.17;;;;;;;19.14;45.08;96176.13;5055456;28;20472;-72
2023/12/02 10:53:50;;;;;;;4.75;2.67;;;;;;;19.26;44.88;96188.22;5072206;28;20024;-73
2023/12/02 10:56:23;;;;;;;5.55;3.00;;;;;;;19.33;44.28;96179.19;5055662;28;20510;-72
2023/12/02 10:58:50;;;;;;;5.43;2.58;;;;;;;19.47;43.83;96183.81;5072607;28;20028;-73
2023/12/02 11:01:37;;;;;;;7.15;2.60;;;;;;;19.59;42.97;96173.41;5079917;28;20106;-74
2023/12/02 11:04:06;;;;;;;6.90;3.40;;;;;;;19.74;43.01;96193.25;5084264;28;20020;-75
2023/12/02 11:06:39;;;;;;;9.93;2.58;;;;;;;19.83;42.81;96186.72;5089039;28;20118;-72
2023/12/02 11:09:43;;;;;;;6.22;2.70;;;;;;;19.89;42.86;96176.97;5089951;28;20471;-73
2023/12/02 11:12:16;;;;;;;5.22;2.10;;;;;;;19.84;43.15;96172.09;5039132;28;20036;-72
2023/12/02 11:14:43;;;;;;;5.70;2.17;;;;;;;19.89;42.97;96158.84;5076035;28;20035;-74
2023/12/02 11:17:38;;;;;;;4.68;2.30;;;;;;;19.89;43.47;96171.56;5075999;28;20032;-74
2023/12/02 11:20:15;;;;;;;6.50;1.73;;;;;;;19.84;43.04;96176.72;5073211;28;20028;-74
2023/12/02 11:23:00;;;;;;;4.25;1.90;;;;;;;19.82;42.91;96163.31;5059127;28;20069;-72
2023/12/02 11:25:45;;;;;;;7.32;2.40;;;;;;;19.87;43.44;96174.44;5093991;28;20027;-73
2023/12/02 11:28:16;;;;;;;9.20;2.92;;;;;;;19.79;42.73;96166.41;5093857;28;20395;-73
2023/12/02 11:30:51;;;;;;;7.15;2.42;;;;;;;19.76;43.55;96155.91;5094476;28;20038;-72
2023/12/02 11:33:37;;;;;;;3.90;1.88;;;;;;;19.71;43.57;96160.22;5092510;28;20032;-73
2023/12/02 11:36:02;;;;;;;7.43;2.97;;;;;;;19.67;43.51;96158.91;5075202;28;20020;-73
2023/12/02 11:38:32;;;;;;;7.10;2.47;;;;;;;19.59;43.78;96145.44;5097323;28;20038;-72